Terminal Aerodrome Forecast
Issued by NWS

Home | Current Version | Previous Version | Text Only | Print | Product List | Glossary On
Versions: 1 2 3 4 5 6 7 8 9 10 11 12 13
000
FTUS42 TJSJ 161100
TAFIST
TAF
TIST 161139Z 1612/1712 09008KT P6SM VCSH SCT030
     FM161300 13012KT P6SM FEW030 SCT050
     FM162300 09007KT P6SM FEW025=

USA.gov is the U.S. government's official web portal to all federal, state and local government web resources and services.